createdAt,value
2023-01-06T00:02:24.880Z,2.37
2023-01-06T00:04:53.229Z,2.30
2023-01-06T00:07:23.098Z,2.43
2023-01-06T00:09:51.615Z,1.97
2023-01-06T00:12:19.723Z,2.07
2023-01-06T00:14:47.932Z,2.30
2023-01-06T00:17:16.132Z,2.00
2023-01-06T00:19:44.429Z,1.87
2023-01-06T00:22:14.824Z,2.10
2023-01-06T00:24:45.623Z,2.10
2023-01-06T00:27:14.156Z,2.00
2023-01-06T00:29:42.385Z,1.87
2023-01-06T00:32:10.922Z,1.63
2023-01-06T00:34:39.839Z,1.87
2023-01-06T00:37:08.986Z,1.77
2023-01-06T00:39:37.915Z,1.70
2023-01-06T00:42:08.781Z,1.80
2023-01-06T00:44:38.509Z,1.50
2023-01-06T00:47:08.822Z,1.57
2023-01-06T00:49:37.308Z,1.50
2023-01-06T00:52:07.366Z,1.70
2023-01-06T00:54:37.003Z,1.53
2023-01-06T00:57:10.579Z,1.50
2023-01-06T00:59:38.975Z,1.53
2023-01-06T01:02:08.299Z,1.60
2023-01-06T01:04:36.844Z,1.47
2023-01-06T01:07:05.747Z,1.30
2023-01-06T01:09:34.322Z,1.57
2023-01-06T01:12:12.437Z,1.60
2023-01-06T01:14:44.810Z,1.50
2023-01-06T01:17:16.033Z,1.50
2023-01-06T01:19:44.354Z,1.60
2023-01-06T01:22:12.617Z,1.70
2023-01-06T01:24:41.021Z,1.70
2023-01-06T01:27:09.835Z,1.80
2023-01-06T01:29:38.082Z,1.73
2023-01-06T01:32:12.542Z,1.50
2023-01-06T01:34:41.172Z,1.40
2023-01-06T01:37:09.308Z,1.33
2023-01-06T01:39:37.456Z,1.60
2023-01-06T01:42:06.077Z,1.40
2023-01-06T01:45:03.076Z,1.70
2023-01-06T01:47:46.156Z,1.40
2023-01-06T01:50:29.737Z,1.30
2023-01-06T01:53:01.103Z,1.40
2023-01-06T01:55:29.762Z,1.57
2023-01-06T01:58:02.448Z,1.37
2023-01-06T02:00:30.676Z,1.60
2023-01-06T02:03:00.511Z,1.47
2023-01-06T02:05:29.595Z,1.33
2023-01-06T02:07:58.834Z,1.50
2023-01-06T02:10:27.122Z,1.57
2023-01-06T02:12:59.466Z,1.50
2023-01-06T02:15:29.042Z,1.80
2023-01-06T02:18:22.658Z,1.57
2023-01-06T02:20:58.869Z,1.60
2023-01-06T02:23:59.199Z,1.40
2023-01-06T02:27:03.008Z,1.70
2023-01-06T02:30:09.434Z,1.40
2023-01-06T02:32:58.261Z,1.50
2023-01-06T02:35:44.210Z,1.37
2023-01-06T02:38:22.044Z,1.70
2023-01-06T02:41:03.452Z,1.20
2023-01-06T02:43:42.372Z,1.47
2023-01-06T02:46:17.585Z,1.50
2023-01-06T02:48:57.625Z,1.50
2023-01-06T02:51:31.137Z,1.30
2023-01-06T02:54:07.425Z,1.40
2023-01-06T02:56:41.788Z,1.50
2023-01-06T02:59:13.163Z,1.10
2023-01-06T03:01:43.110Z,1.60
2023-01-06T03:04:17.186Z,1.43
2023-01-06T03:06:46.882Z,1.00
2023-01-06T03:09:19.998Z,1.23
2023-01-06T03:11:51.571Z,1.40
2023-01-06T03:14:23.891Z,1.40
2023-01-06T03:16:52.095Z,1.37
2023-01-06T03:19:21.848Z,1.43
2023-01-06T03:21:51.391Z,1.20
2023-01-06T03:24:22.937Z,0.90
2023-01-06T03:26:53.892Z,1.00
2023-01-06T03:29:23.235Z,1.00
2023-01-06T03:32:01.814Z,1.20
2023-01-06T03:34:49.449Z,0.80
2023-01-06T03:37:25.953Z,0.97
2023-01-06T03:39:59.398Z,1.13
2023-01-06T03:42:49.730Z,1.07
2023-01-06T03:45:36.489Z,0.90
2023-01-06T03:48:10.806Z,1.10
2023-01-06T03:50:44.418Z,1.03
2023-01-06T03:53:19.752Z,1.00
2023-01-06T03:55:52.810Z,0.80
2023-01-06T03:58:21.743Z,0.93
2023-01-06T04:00:50.948Z,1.00
2023-01-06T04:03:19.098Z,0.93
2023-01-06T04:05:50.183Z,1.07
2023-01-06T04:08:18.506Z,1.23
2023-01-06T04:10:46.767Z,0.83
2023-01-06T04:13:14.947Z,1.10
2023-01-06T04:15:43.718Z,1.10
2023-01-06T04:18:11.832Z,1.10
2023-01-06T04:20:42.191Z,1.00
2023-01-06T04:23:18.741Z,1.00
2023-01-06T04:25:47.014Z,0.90
2023-01-06T04:28:18.075Z,1.87
2023-01-06T04:30:46.708Z,0.90
2023-01-06T04:33:15.340Z,1.00
2023-01-06T04:35:45.872Z,1.10
2023-01-06T04:38:18.676Z,0.93
2023-01-06T04:40:47.020Z,0.90
2023-01-06T04:43:16.339Z,1.00
2023-01-06T04:45:45.054Z,1.00
2023-01-06T04:48:13.901Z,1.00
2023-01-06T04:50:42.345Z,0.80
2023-01-06T04:53:11.561Z,0.93
2023-01-06T04:55:41.738Z,0.73
2023-01-06T04:58:10.125Z,0.80
2023-01-06T05:00:38.332Z,1.00
2023-01-06T05:03:06.617Z,1.00
2023-01-06T05:05:35.757Z,1.03
2023-01-06T05:08:04.219Z,0.73
2023-01-06T05:10:32.288Z,1.10
2023-01-06T05:13:04.832Z,0.90
2023-01-06T05:15:33.004Z,0.83
2023-01-06T05:18:01.270Z,0.97
2023-01-06T05:20:29.574Z,1.10
2023-01-06T05:22:58.288Z,0.70
2023-01-06T05:25:26.664Z,1.10
2023-01-06T05:27:54.994Z,1.00
2023-01-06T05:30:24.694Z,0.80
2023-01-06T05:32:52.917Z,0.80
2023-01-06T05:35:21.232Z,1.10
2023-01-06T05:37:49.540Z,1.20
2023-01-06T05:40:17.856Z,1.00
2023-01-06T05:42:46.033Z,1.37
2023-01-06T05:45:14.487Z,1.00
2023-01-06T05:47:43.927Z,1.20
2023-01-06T05:50:12.171Z,1.27
2023-01-06T05:52:40.325Z,1.20
2023-01-06T05:55:09.676Z,1.07
2023-01-06T05:57:38.322Z,1.00
2023-01-06T06:00:08.459Z,1.00
2023-01-06T06:02:44.206Z,0.90
2023-01-06T06:05:12.675Z,1.07
2023-01-06T06:07:40.747Z,1.00
2023-01-06T06:10:09.734Z,0.90
2023-01-06T06:12:38.096Z,0.93
2023-01-06T06:15:07.081Z,1.00
2023-01-06T06:17:35.103Z,1.13
2023-01-06T06:20:05.195Z,0.90
2023-01-06T06:22:33.313Z,1.63
2023-01-06T06:25:01.413Z,1.07
2023-01-06T06:27:29.480Z,0.97
2023-01-06T06:29:57.596Z,1.10
2023-01-06T06:32:25.684Z,0.87
2023-01-06T06:34:53.733Z,0.93
2023-01-06T06:37:23.188Z,1.10
2023-01-06T06:39:51.391Z,0.90
2023-01-06T06:42:19.442Z,0.70
2023-01-06T06:44:47.446Z,1.00
2023-01-06T06:47:16.016Z,0.90
2023-01-06T06:49:44.162Z,1.00
2023-01-06T06:52:12.438Z,1.03
2023-01-06T06:54:41.894Z,0.80
2023-01-06T06:57:10.045Z,1.07
2023-01-06T06:59:38.206Z,1.00
2023-01-06T07:02:07.552Z,1.00
2023-01-06T07:04:35.792Z,1.00
2023-01-06T07:07:03.958Z,0.90
2023-01-06T07:09:32.156Z,0.90
2023-01-06T07:12:02.306Z,0.90
2023-01-06T07:14:30.460Z,1.10
2023-01-06T07:17:01.360Z,1.17
2023-01-06T07:19:29.717Z,1.07
2023-01-06T07:21:58.060Z,0.90
2023-01-06T07:24:26.171Z,1.10
2023-01-06T07:26:54.288Z,1.10
2023-01-06T07:29:23.857Z,1.27
2023-01-06T07:31:51.946Z,0.93
2023-01-06T07:34:20.045Z,0.90
2023-01-06T07:36:48.095Z,1.00
2023-01-06T07:39:16.140Z,0.73
2023-01-06T07:41:44.429Z,0.80
2023-01-06T07:44:13.364Z,1.00
2023-01-06T07:46:42.829Z,0.60
2023-01-06T07:49:11.041Z,0.90
2023-01-06T07:51:39.242Z,0.83
2023-01-06T07:54:07.805Z,0.90
2023-01-06T07:56:36.044Z,0.90
2023-01-06T07:59:04.648Z,1.10
2023-01-06T08:01:33.294Z,0.90
2023-01-06T08:04:03.123Z,0.97
2023-01-06T08:06:31.428Z,0.90
2023-01-06T08:09:03.736Z,0.80
2023-01-06T08:11:32.673Z,1.00
2023-01-06T08:14:00.794Z,0.90
2023-01-06T08:16:29.679Z,0.80
2023-01-06T08:18:58.008Z,0.80
2023-01-06T08:21:27.685Z,0.90
2023-01-06T08:23:55.921Z,0.97
2023-01-06T08:26:24.167Z,1.00
2023-01-06T08:28:53.561Z,0.80
2023-01-06T08:31:22.613Z,0.80
2023-01-06T08:33:51.817Z,0.70
2023-01-06T08:36:21.856Z,0.70
2023-01-06T08:38:52.193Z,0.60
2023-01-06T08:41:21.345Z,0.50
2023-01-06T08:43:49.953Z,0.70
2023-01-06T08:46:20.502Z,0.57
2023-01-06T08:48:49.225Z,0.87
2023-01-06T08:51:19.051Z,0.80
2023-01-06T08:53:47.694Z,0.73
2023-01-06T08:56:19.571Z,0.53
2023-01-06T08:58:52.264Z,0.70
2023-01-06T09:01:22.369Z,0.63
2023-01-06T09:03:50.722Z,0.70
2023-01-06T09:06:23.144Z,0.53
2023-01-06T09:08:51.427Z,0.60
2023-01-06T09:11:21.174Z,0.80
2023-01-06T09:13:50.590Z,0.80
2023-01-06T09:16:19.470Z,0.60
2023-01-06T09:18:50.074Z,0.70
2023-01-06T09:21:19.831Z,0.57
2023-01-06T09:23:48.495Z,0.67
2023-01-06T09:26:17.835Z,0.50
2023-01-06T09:28:47.552Z,0.63
2023-01-06T09:31:15.853Z,0.67
2023-01-06T09:33:44.084Z,0.50
2023-01-06T09:36:12.400Z,0.40
2023-01-06T09:38:40.679Z,0.70
2023-01-06T09:41:21.794Z,0.50
2023-01-06T09:43:53.520Z,0.70
2023-01-06T09:46:24.864Z,0.70
2023-01-06T09:48:59.520Z,0.57
2023-01-06T09:51:29.102Z,0.40
2023-01-06T09:54:01.603Z,0.67
2023-01-06T09:56:29.693Z,0.50
2023-01-06T09:59:07.007Z,0.50
2023-01-06T10:01:39.126Z,0.53
2023-01-06T10:04:08.112Z,0.40
2023-01-06T10:06:39.987Z,0.50
2023-01-06T10:09:21.769Z,0.50
2023-01-06T10:11:57.071Z,0.40
2023-01-06T10:14:38.598Z,0.67
2023-01-06T10:17:23.720Z,0.43
2023-01-06T10:20:01.202Z,0.50
2023-01-06T10:22:36.115Z,0.43
2023-01-06T10:25:08.231Z,0.50
2023-01-06T10:27:39.721Z,0.60
2023-01-06T10:30:21.740Z,1.00
2023-01-06T10:32:51.548Z,0.60
2023-01-06T10:35:25.558Z,0.40
2023-01-06T10:37:56.947Z,0.40
2023-01-06T10:40:26.795Z,0.40
2023-01-06T10:42:57.577Z,0.40
2023-01-06T10:45:30.221Z,0.40
2023-01-06T10:47:59.547Z,0.50
2023-01-06T10:50:27.959Z,0.57
2023-01-06T10:52:56.235Z,0.60
2023-01-06T10:55:35.646Z,0.67
2023-01-06T10:58:11.833Z,0.40
2023-01-06T11:00:55.630Z,0.50
2023-01-06T11:03:39.363Z,0.60
2023-01-06T11:06:10.295Z,0.43
2023-01-06T11:08:39.156Z,0.50
2023-01-06T11:11:27.106Z,0.47
2023-01-06T11:13:57.282Z,0.47
2023-01-06T11:16:30.556Z,0.40
2023-01-06T11:19:01.302Z,0.57
2023-01-06T11:21:41.584Z,0.50
2023-01-06T11:24:28.156Z,0.50
2023-01-06T11:26:57.539Z,0.40
2023-01-06T11:29:31.745Z,0.50
2023-01-06T11:32:05.133Z,0.77
2023-01-06T11:34:33.687Z,1.00
2023-01-06T11:37:02.149Z,0.80
2023-01-06T11:39:33.827Z,0.70
2023-01-06T11:42:08.725Z,0.90
2023-01-06T11:44:40.075Z,0.50
2023-01-06T11:47:16.259Z,0.60
2023-01-06T11:49:48.628Z,0.40
2023-01-06T11:52:22.954Z,0.40
2023-01-06T11:54:59.110Z,0.40
2023-01-06T11:57:32.295Z,0.40
2023-01-06T12:00:10.271Z,0.80
2023-01-06T12:02:50.936Z,0.50
2023-01-06T12:05:24.200Z,0.40
2023-01-06T12:07:54.192Z,0.43
2023-01-06T12:10:26.057Z,0.47
2023-01-06T12:12:54.274Z,0.40
2023-01-06T12:15:23.590Z,0.40
2023-01-06T12:17:56.449Z,0.53
2023-01-06T12:20:27.364Z,0.40
2023-01-06T12:22:59.003Z,0.43
2023-01-06T12:25:29.376Z,0.43
2023-01-06T12:28:01.094Z,0.40
2023-01-06T12:30:34.070Z,0.40
2023-01-06T12:33:07.757Z,0.40
2023-01-06T12:35:38.128Z,0.50
2023-01-06T12:38:12.438Z,0.40
2023-01-06T12:40:44.534Z,0.40
2023-01-06T12:43:17.320Z,0.43
2023-01-06T12:45:57.304Z,0.40
2023-01-06T12:48:37.384Z,0.33
2023-01-06T12:51:09.524Z,0.50
2023-01-06T12:53:42.124Z,0.57
2023-01-06T12:56:38.164Z,0.43
2023-01-06T12:59:17.668Z,0.40
2023-01-06T13:01:52.485Z,0.40
2023-01-06T13:04:41.280Z,0.50
2023-01-06T13:07:15.968Z,0.47
2023-01-06T13:09:56.599Z,0.40
2023-01-06T13:12:46.314Z,0.50
2023-01-06T13:15:20.681Z,0.60
2023-01-06T13:17:53.255Z,0.73
2023-01-06T13:20:25.567Z,0.50
2023-01-06T13:23:02.387Z,0.40
2023-01-06T13:25:55.225Z,0.53
2023-01-06T13:28:33.692Z,0.67
2023-01-06T13:31:23.496Z,0.60
2023-01-06T13:34:19.997Z,0.50
2023-01-06T13:37:21.037Z,0.33
2023-01-06T13:39:56.576Z,0.50
2023-01-06T13:42:33.903Z,0.50
2023-01-06T13:45:05.918Z,0.50
2023-01-06T13:47:37.590Z,0.30
2023-01-06T13:50:10.261Z,0.60
2023-01-06T13:52:45.061Z,0.50
2023-01-06T13:55:27.313Z,0.53
2023-01-06T13:57:56.681Z,0.50
2023-01-06T14:00:31.269Z,0.50
2023-01-06T14:03:04.450Z,0.60
2023-01-06T14:05:56.636Z,0.50
2023-01-06T14:08:30.259Z,0.50
2023-01-06T14:11:07.083Z,0.63
2023-01-06T14:13:40.150Z,0.60
2023-01-06T14:16:13.343Z,0.50
2023-01-06T14:18:44.024Z,0.50
2023-01-06T14:21:28.030Z,0.50
2023-01-06T14:24:01.943Z,0.50
2023-01-06T14:26:54.196Z,0.50
2023-01-06T14:30:00.710Z,0.60
2023-01-06T14:33:20.875Z,0.40
2023-01-06T14:35:49.648Z,0.57
2023-01-06T14:38:25.079Z,0.50
2023-01-06T14:40:57.317Z,0.50
2023-01-06T14:43:33.389Z,0.50
2023-01-06T14:46:08.070Z,0.40
2023-01-06T14:48:43.033Z,0.30
2023-01-06T14:51:16.293Z,0.50
2023-01-06T14:53:49.135Z,0.50
2023-01-06T14:56:21.574Z,0.53
2023-01-06T14:58:50.821Z,0.50
2023-01-06T15:01:24.077Z,0.63
2023-01-06T15:03:56.861Z,0.50
2023-01-06T15:06:28.626Z,1.20
2023-01-06T15:09:12.177Z,1.23
2023-01-06T15:11:43.714Z,1.00
2023-01-06T15:14:26.916Z,0.80
2023-01-06T15:16:56.856Z,0.57
2023-01-06T15:19:25.871Z,0.70
2023-01-06T15:21:55.107Z,0.90
2023-01-06T15:24:25.699Z,0.70
2023-01-06T15:26:57.135Z,0.60
2023-01-06T15:29:26.742Z,0.70
2023-01-06T15:31:55.364Z,0.60
2023-01-06T15:34:27.156Z,0.60
2023-01-06T15:36:57.496Z,0.60
2023-01-06T15:39:27.814Z,0.67
2023-01-06T15:41:58.932Z,0.63
2023-01-06T15:44:31.399Z,0.67
2023-01-06T15:47:08.244Z,0.70
2023-01-06T15:49:38.560Z,0.60
2023-01-06T15:52:09.315Z,0.60
2023-01-06T15:54:39.209Z,0.70
2023-01-06T15:57:16.822Z,0.80
2023-01-06T15:59:54.522Z,0.70
2023-01-06T16:02:26.262Z,0.93
2023-01-06T16:04:54.565Z,0.90
2023-01-06T16:07:24.580Z,0.80
2023-01-06T16:09:53.055Z,0.70
2023-01-06T16:12:22.801Z,0.70
2023-01-06T16:14:51.135Z,0.70
2023-01-06T16:17:39.581Z,0.80
2023-01-06T16:20:22.531Z,0.50
2023-01-06T16:22:53.693Z,0.60
2023-01-06T16:25:26.605Z,0.63
2023-01-06T16:27:58.284Z,0.77
2023-01-06T16:30:26.974Z,0.63
2023-01-06T16:32:55.604Z,0.83
2023-01-06T16:35:25.130Z,0.93
2023-01-06T16:37:53.775Z,0.60
2023-01-06T16:40:23.921Z,0.80
2023-01-06T16:43:00.263Z,0.70
2023-01-06T16:45:30.754Z,0.80
2023-01-06T16:47:59.212Z,0.87
2023-01-06T16:50:30.104Z,1.00
2023-01-06T16:53:04.242Z,0.70
2023-01-06T16:55:32.481Z,0.70
2023-01-06T16:58:02.685Z,0.77
2023-01-06T17:00:31.431Z,0.93
2023-01-06T17:02:59.644Z,0.80
2023-01-06T17:05:29.473Z,0.83
2023-01-06T17:07:59.870Z,0.87
2023-01-06T17:10:28.248Z,0.90
2023-01-06T17:13:15.757Z,0.80
2023-01-06T17:15:45.691Z,0.80
2023-01-06T17:18:25.580Z,1.00
2023-01-06T17:21:01.876Z,1.03
2023-01-06T17:23:30.692Z,0.87
2023-01-06T17:26:01.763Z,0.70
2023-01-06T17:28:32.192Z,0.90
2023-01-06T17:31:02.470Z,0.73
2023-01-06T17:33:33.435Z,0.80
2023-01-06T17:36:02.956Z,0.80
2023-01-06T17:38:31.512Z,0.90
2023-01-06T17:40:59.557Z,1.00
2023-01-06T17:43:30.714Z,0.80
2023-01-06T17:45:59.233Z,1.00
2023-01-06T17:48:28.772Z,0.70
2023-01-06T17:50:58.548Z,1.10
2023-01-06T17:53:48.708Z,1.07
2023-01-06T17:56:17.147Z,0.80
2023-01-06T17:58:46.441Z,0.90
2023-01-06T18:01:18.248Z,1.00
2023-01-06T18:03:48.034Z,1.20
2023-01-06T18:06:27.122Z,1.10
2023-01-06T18:09:03.517Z,1.00
2023-01-06T18:11:35.008Z,1.10
2023-01-06T18:14:15.700Z,1.13
2023-01-06T18:16:45.873Z,1.20
2023-01-06T18:19:37.323Z,1.20
2023-01-06T18:22:14.190Z,1.13
2023-01-06T18:24:42.497Z,1.20
2023-01-06T18:27:16.489Z,1.00
2023-01-06T18:29:45.745Z,1.00
2023-01-06T18:32:24.207Z,1.17
2023-01-06T18:34:55.507Z,1.00
2023-01-06T18:37:25.889Z,0.90
2023-01-06T18:39:57.172Z,1.17
2023-01-06T18:42:27.696Z,0.90
2023-01-06T18:45:04.492Z,1.10
2023-01-06T18:47:32.806Z,0.90
2023-01-06T18:50:21.125Z,1.10
2023-01-06T18:52:50.086Z,1.07
2023-01-06T18:55:25.842Z,1.23
2023-01-06T18:57:57.843Z,1.10
2023-01-06T19:00:32.617Z,1.40
2023-01-06T19:03:10.412Z,1.50
2023-01-06T19:05:39.966Z,1.40
2023-01-06T19:08:15.253Z,1.33
2023-01-06T19:10:45.102Z,1.23
2023-01-06T19:13:20.148Z,1.00
2023-01-06T19:15:48.474Z,1.30
2023-01-06T19:18:18.297Z,1.30
2023-01-06T19:20:48.254Z,1.23
2023-01-06T19:23:19.526Z,1.30
2023-01-06T19:25:51.643Z,1.30
2023-01-06T19:28:22.934Z,1.13
2023-01-06T19:30:52.847Z,1.10
2023-01-06T19:33:39.998Z,1.13
2023-01-06T19:36:40.679Z,1.03
2023-01-06T19:39:27.886Z,0.90
2023-01-06T19:41:59.641Z,1.10
2023-01-06T19:44:33.123Z,1.10
2023-01-06T19:47:13.834Z,1.10
2023-01-06T19:49:45.231Z,1.20
2023-01-06T19:52:32.608Z,1.23
2023-01-06T19:55:15.490Z,1.10
2023-01-06T19:57:45.536Z,0.90
2023-01-06T20:00:27.124Z,1.23
2023-01-06T20:02:58.163Z,1.03
2023-01-06T20:05:28.581Z,1.10
2023-01-06T20:07:58.343Z,1.13
2023-01-06T20:10:26.587Z,1.10
2023-01-06T20:12:54.887Z,1.10
2023-01-06T20:15:22.980Z,1.23
2023-01-06T20:17:51.207Z,1.30
2023-01-06T20:20:19.845Z,1.00
2023-01-06T20:22:48.007Z,1.00
2023-01-06T20:25:17.597Z,1.10
2023-01-06T20:27:45.841Z,1.10
2023-01-06T20:30:14.387Z,1.10
2023-01-06T20:32:42.890Z,1.00
2023-01-06T20:35:12.517Z,1.20
2023-01-06T20:37:40.684Z,1.33
2023-01-06T20:40:10.313Z,0.90
2023-01-06T20:42:39.975Z,1.30
2023-01-06T20:45:09.224Z,1.23
2023-01-06T20:47:38.480Z,1.10
2023-01-06T20:50:08.696Z,1.20
2023-01-06T20:52:37.151Z,1.10
2023-01-06T20:55:05.849Z,1.13
2023-01-06T20:57:35.228Z,1.00
2023-01-06T21:00:06.599Z,1.07
2023-01-06T21:02:37.591Z,0.90
2023-01-06T21:05:09.409Z,1.03
2023-01-06T21:07:37.971Z,0.90
2023-01-06T21:10:07.447Z,0.77
2023-01-06T21:12:35.779Z,0.90
2023-01-06T21:15:06.556Z,1.07
2023-01-06T21:17:35.119Z,0.80
2023-01-06T21:20:03.498Z,0.83
2023-01-06T21:22:31.771Z,1.10
2023-01-06T21:25:00.186Z,0.90
2023-01-06T21:27:38.276Z,0.90
2023-01-06T21:30:14.734Z,0.90
2023-01-06T21:32:43.108Z,0.87
2023-01-06T21:35:11.568Z,0.97
2023-01-06T21:37:41.529Z,0.77
2023-01-06T21:40:11.692Z,0.73
2023-01-06T21:42:58.140Z,0.93
2023-01-06T21:45:28.313Z,1.00
2023-01-06T21:47:56.913Z,1.00
2023-01-06T21:50:26.892Z,1.00
2023-01-06T21:52:55.804Z,1.00
2023-01-06T21:55:24.381Z,1.00
2023-01-06T21:57:53.681Z,1.07
2023-01-06T22:00:22.266Z,1.10
2023-01-06T22:02:53.568Z,1.00
2023-01-06T22:05:25.036Z,0.93
2023-01-06T22:07:54.482Z,0.90
2023-01-06T22:10:24.932Z,0.93
2023-01-06T22:12:55.122Z,0.80
2023-01-06T22:15:24.010Z,0.87
2023-01-06T22:17:56.917Z,0.90
2023-01-06T22:20:25.462Z,0.70
2023-01-06T22:22:53.935Z,1.00
2023-01-06T22:25:23.247Z,1.00
2023-01-06T22:27:52.840Z,1.00
2023-01-06T22:30:22.160Z,1.00
2023-01-06T22:32:50.375Z,0.87
2023-01-06T22:35:20.550Z,0.90
2023-01-06T22:37:49.371Z,1.20
2023-01-06T22:40:18.105Z,0.90
2023-01-06T22:42:46.338Z,1.07
2023-01-06T22:45:15.495Z,1.07
2023-01-06T22:47:43.774Z,0.90
2023-01-06T22:50:12.674Z,1.33
2023-01-06T22:52:43.233Z,0.83
2023-01-06T22:55:11.754Z,1.00
2023-01-06T22:57:41.331Z,1.30
2023-01-06T23:00:17.597Z,1.30
2023-01-06T23:02:46.280Z,1.00
2023-01-06T23:05:15.112Z,1.00
2023-01-06T23:07:45.171Z,0.90
2023-01-06T23:10:15.259Z,1.13
2023-01-06T23:12:45.402Z,1.00
2023-01-06T23:15:14.466Z,1.20
2023-01-06T23:17:42.752Z,1.17
2023-01-06T23:20:12.294Z,1.10
2023-01-06T23:22:40.627Z,1.20
2023-01-06T23:25:11.090Z,1.07
2023-01-06T23:27:39.355Z,1.27
2023-01-06T23:30:09.177Z,1.10
2023-01-06T23:32:37.668Z,1.03
2023-01-06T23:35:06.881Z,1.00
2023-01-06T23:37:36.543Z,0.90
2023-01-06T23:40:06.278Z,1.10
2023-01-06T23:42:44.209Z,1.03
2023-01-06T23:45:16.557Z,1.10
2023-01-06T23:47:44.938Z,1.20
2023-01-06T23:50:13.344Z,1.10
2023-01-06T23:52:41.835Z,1.03
2023-01-06T23:55:10.416Z,1.30
2023-01-06T23:57:40.143Z,1.20
